Northwest Plaza, Missouri
Current Conditions -  °F | °C
As of 8:51 AM on Friday 24 Oct 2014 (Local Time) from KSTL Reporting Station
Overcast Overcast  
Wind Chill: 58°   Ceiling: 800
Heat Index: 58°   Visibility: 10mi
Dew Point: 52°   Wind: 7mph
Humidity: 81%   Direction: 260°W
Pressure: 30.12"   Gusts: NA
Location:  38.7263°N, 90.3885°W
Report Text: KSTL 241351Z 26006KT 10SM BKN008 BKN014 OVC023 14/11 A3012 RMK AO2 SLP195 T01440111
Loading
Personal Weather Stations






























Interactive Weather Map
Tropical Storm Tracking
New forecast layout! Learn more

10-Day Weather Forecast

Advertisements
Track Severe Weather on mobile